Time;durP1;ratioP1;P1;durP2;ratioP2;P2;SDS_P1;SDS_P2;PMS_P1;PMS_P2;Temp;Humidity;BMP_temperature;BMP_pressure;BME280_temperature;BME280_humidity;BME280_pressure;Samples;Min_cycle;Max_cycle;Signal;HPM_P1;HPM_P2
2023/07/24 00:00:43;;;;;;;7.00;2.08;;;16.80;99.90;;;;;;4968592;28;20172;-59
2023/07/24 00:03:08;;;;;;;6.68;2.22;;;16.70;99.90;;;;;;4968765;28;20228;-60
2023/07/24 00:05:34;;;;;;;3.78;1.60;;;16.80;99.90;;;;;;4970932;28;20176;-60
2023/07/24 00:08:00;;;;;;;8.38;1.73;;;16.80;99.90;;;;;;4973299;28;20263;-59
2023/07/24 00:10:25;;;;;;;7.07;1.90;;;16.80;99.90;;;;;;4970978;28;20682;-59
2023/07/24 00:12:51;;;;;;;6.10;1.85;;;16.80;99.90;;;;;;4969195;28;20196;-59
2023/07/24 00:15:17;;;;;;;5.82;2.03;;;16.80;99.90;;;;;;4974219;28;20180;-60
2023/07/24 00:17:42;;;;;;;5.38;2.00;;;16.80;99.90;;;;;;4969770;28;20590;-60
2023/07/24 00:20:08;;;;;;;6.97;1.77;;;16.70;99.90;;;;;;4973014;28;20215;-60
2023/07/24 00:22:34;;;;;;;4.53;1.85;;;16.70;99.90;;;;;;4970037;28;20659;-60
2023/07/24 00:24:59;;;;;;;4.43;1.98;;;16.60;99.90;;;;;;4970606;28;20179;-59
2023/07/24 00:27:25;;;;;;;5.13;1.90;;;16.70;99.90;;;;;;4973472;28;20309;-60
2023/07/24 00:29:50;;;;;;;6.50;1.75;;;16.70;99.90;;;;;;4969718;28;20183;-60
2023/07/24 00:32:16;;;;;;;5.90;1.90;;;16.70;99.90;;;;;;4974307;28;20180;-59
2023/07/24 00:34:42;;;;;;;6.07;1.85;;;16.80;99.90;;;;;;4969720;28;20235;-59
2023/07/24 00:37:07;;;;;;;3.90;1.63;;;16.80;99.90;;;;;;4970649;28;20550;-60
2023/07/24 00:39:33;;;;;;;6.22;2.00;;;16.80;99.90;;;;;;4971076;28;20266;-59
2023/07/24 00:41:59;;;;;;;5.80;1.88;;;16.80;99.90;;;;;;4972939;28;20272;-59
2023/07/24 00:44:24;;;;;;;8.57;2.05;;;16.80;99.90;;;;;;4969549;28;20196;-59
2023/07/24 00:46:50;;;;;;;8.77;1.80;;;16.80;99.90;;;;;;4970207;28;20706;-60
2023/07/24 00:49:17;;;;;;;8.50;2.05;;;16.80;99.90;;;;;;4973037;28;20243;-62
2023/07/24 00:51:44;;;;;;;7.22;1.70;;;16.60;99.90;;;;;;4970394;28;20235;-61
2023/07/24 00:54:11;;;;;;;4.65;1.83;;;16.70;99.90;;;;;;4972622;28;20194;-62
2023/07/24 00:56:37;;;;;;;8.18;1.90;;;16.70;99.90;;;;;;4969184;28;20298;-62
2023/07/24 00:59:03;;;;;;;5.43;2.25;;;16.60;99.90;;;;;;4974014;28;20171;-62
2023/07/24 01:01:29;;;;;;;7.28;1.98;;;16.60;99.90;;;;;;4969350;28;20263;-63
2023/07/24 01:03:56;;;;;;;3.55;1.70;;;16.60;99.90;;;;;;4970375;28;20190;-62
2023/07/24 01:06:23;;;;;;;9.02;1.90;;;16.50;99.90;;;;;;4969906;28;20212;-62
2023/07/24 01:08:48;;;;;;;6.40;1.77;;;16.60;99.90;;;;;;4973181;28;20525;-63
2023/07/24 01:11:49;;;;;;;5.20;2.00;;;16.60;99.90;;;;;;4969011;28;20199;-62
2023/07/24 01:14:31;;;;;;;7.63;2.17;;;16.50;99.90;;;;;;4955795;28;20187;-62
2023/07/24 01:17:00;;;;;;;4.50;1.70;;;16.50;99.90;;;;;;4971986;28;20187;-63
2023/07/24 01:19:44;;;;;;;5.88;1.80;;;16.50;99.90;;;;;;4969240;28;20270;-63
2023/07/24 01:22:25;;;;;;;4.57;1.92;;;16.50;99.90;;;;;;4973010;28;20187;-62
2023/07/24 01:25:26;;;;;;;4.53;1.85;;;16.60;99.90;;;;;;4968954;28;20207;-63
2023/07/24 01:27:52;;;;;;;10.27;1.92;;;16.50;99.90;;;;;;4968789;28;20691;-63
2023/07/24 01:30:19;;;;;;;5.72;1.98;;;16.60;99.90;;;;;;4972430;28;20280;-63
2023/07/24 01:32:45;;;;;;;6.55;2.00;;;16.50;99.90;;;;;;4971833;28;20651;-63
2023/07/24 01:35:11;;;;;;;4.38;1.98;;;16.50;99.90;;;;;;4970034;28;20191;-63
2023/07/24 01:37:40;;;;;;;5.63;1.90;;;16.50;99.90;;;;;;4968661;28;20270;-63
2023/07/24 01:40:07;;;;;;;6.40;1.90;;;16.40;99.90;;;;;;4969364;28;20220;-62
2023/07/24 01:42:34;;;;;;;4.05;1.80;;;16.40;99.90;;;;;;4972464;28;20188;-64
2023/07/24 01:45:01;;;;;;;6.00;1.70;;;16.40;99.90;;;;;;4969027;28;20176;-63
2023/07/24 01:47:27;;;;;;;4.43;1.80;;;16.40;99.90;;;;;;4972669;28;20769;-63
2023/07/24 01:49:52;;;;;;;6.25;1.98;;;16.40;99.90;;;;;;4968438;28;20205;-64
2023/07/24 01:52:18;;;;;;;4.65;1.90;;;16.30;99.90;;;;;;4969373;28;20187;-63
2023/07/24 01:55:31;;;;;;;4.72;1.73;;;16.30;99.90;;;;;;4970811;28;20186;-60
2023/07/24 01:57:56;;;;;;;5.78;2.50;;;16.40;99.90;;;;;;4967919;28;20336;-61
2023/07/24 02:00:22;;;;;;;6.90;1.73;;;;;;;;;;4968918;28;20662;-61
2023/07/24 02:02:48;;;;;;;7.85;1.80;;;16.30;99.90;;;;;;4971472;28;20183;-61
2023/07/24 02:05:13;;;;;;;7.68;1.80;;;16.20;99.90;;;;;;4969296;28;20183;-62
2023/07/24 02:07:39;;;;;;;6.13;1.75;;;16.20;99.90;;;;;;4967622;28;20578;-61
2023/07/24 02:10:05;;;;;;;4.72;2.00;;;16.30;99.90;;;;;;4968034;28;20659;-62
2023/07/24 02:12:30;;;;;;;5.07;1.77;;;16.30;99.90;;;;;;4972037;28;20187;-62
2023/07/24 02:14:57;;;;;;;5.25;1.85;;;16.30;99.90;;;;;;4964705;28;20732;-61
2023/07/24 02:17:23;;;;;;;6.28;1.70;;;16.30;99.90;;;;;;4972339;28;20263;-61
2023/07/24 02:19:49;;;;;;;3.33;1.60;;;16.40;99.90;;;;;;4967456;28;20180;-62
2023/07/24 02:22:15;;;;;;;3.08;1.95;;;16.40;99.90;;;;;;4971591;28;20274;-63
2023/07/24 02:24:41;;;;;;;5.18;2.10;;;16.40;99.90;;;;;;4966141;28;21099;-63
2023/07/24 02:27:06;;;;;;;6.57;1.75;;;16.30;99.90;;;;;;4969754;28;20215;-63
2023/07/24 02:29:33;;;;;;;4.88;1.60;;;16.40;99.90;;;;;;4966872;28;20204;-63
2023/07/24 02:31:59;;;;;;;5.10;1.88;;;16.30;99.90;;;;;;4968423;28;20184;-63
2023/07/24 02:34:26;;;;;;;6.32;2.20;;;16.30;99.90;;;;;;4971395;28;20355;-63
2023/07/24 02:36:53;;;;;;;5.97;2.03;;;16.30;99.90;;;;;;4968363;28;20195;-63
2023/07/24 02:39:19;;;;;;;7.75;1.80;;;16.20;99.90;;;;;;4968124;28;20184;-63
2023/07/24 02:41:45;;;;;;;5.78;1.92;;;16.30;99.90;;;;;;4967842;28;20648;-60
2023/07/24 02:44:11;;;;;;;7.72;1.77;;;16.20;99.90;;;;;;4971174;28;20187;-62
2023/07/24 02:47:23;;;;;;;8.93;2.03;;;16.20;99.90;;;;;;4966949;28;20212;-62
2023/07/24 02:50:07;;;;;;;4.15;1.42;;;16.20;99.90;;;;;;4967178;28;20192;-62
2023/07/24 02:52:33;;;;;;;3.78;1.48;;;16.20;99.90;;;;;;4964574;28;20281;-64
2023/07/24 02:54:58;;;;;;;3.75;1.80;;;16.20;99.90;;;;;;4966603;28;20284;-64
2023/07/24 02:58:10;;;;;;;7.28;1.80;;;16.20;99.90;;;;;;4971437;28;20195;-63
2023/07/24 03:00:36;;;;;;;3.08;1.60;;;16.20;99.90;;;;;;4970147;28;20183;-61
2023/07/24 03:03:01;;;;;;;5.20;1.55;;;16.60;99.90;;;;;;4967027;28;20603;-63
2023/07/24 03:05:27;;;;;;;4.55;1.85;;;16.20;99.90;;;;;;4967907;28;20176;-62
2023/07/24 03:07:53;;;;;;;5.32;1.92;;;16.10;99.90;;;;;;4969778;28;20230;-61
2023/07/24 03:10:19;;;;;;;5.88;1.60;;;;;;;;;;4967423;28;20678;-62
2023/07/24 03:12:44;;;;;;;3.95;1.38;;;16.10;99.90;;;;;;4970594;28;20489;-62
2023/07/24 03:15:10;;;;;;;3.72;1.33;;;16.10;99.90;;;;;;4967910;28;20180;-61
2023/07/24 03:17:36;;;;;;;4.70;1.70;;;16.10;99.90;;;;;;4970623;28;20259;-61
2023/07/24 03:20:39;;;;;;;6.35;1.85;;;16.10;99.90;;;;;;4964620;28;20294;-62
2023/07/24 03:23:05;;;;;;;5.78;1.70;;;16.10;99.90;;;;;;4968268;28;20187;-61
2023/07/24 03:28:55;;;;;;;4.72;1.60;;;16.10;99.90;;;;;;4971960;28;20206;-60
2023/07/24 03:31:21;;;;;;;2.90;1.65;;;16.10;99.90;;;;;;4970149;28;20180;-60
2023/07/24 03:33:47;;;;;;;5.78;2.05;;;16.00;99.90;;;;;;4967615;28;20176;-62
2023/07/24 03:36:12;;;;;;;6.57;2.03;;;16.10;99.90;;;;;;4968906;28;20183;-62
2023/07/24 03:38:38;;;;;;;4.03;1.60;;;16.10;99.90;;;;;;4970045;28;20168;-62
2023/07/24 03:41:03;;;;;;;3.53;1.95;;;15.70;99.90;;;;;;4970910;28;20191;-60
2023/07/24 03:43:29;;;;;;;4.00;1.77;;;15.90;99.90;;;;;;4969256;28;20682;-60
2023/07/24 03:45:55;;;;;;;6.45;1.60;;;16.00;99.90;;;;;;4970663;28;20191;-61
2023/07/24 03:48:20;;;;;;;4.43;1.50;;;16.00;99.90;;;;;;4965604;28;20219;-61
2023/07/24 03:50:59;;;;;;;3.70;1.85;;;16.00;99.90;;;;;;4967019;28;20234;-61
2023/07/24 03:57:09;;;;;;;3.88;1.73;;;16.00;99.90;;;;;;4964724;28;20219;-63
2023/07/24 03:59:34;;;;;;;3.25;1.60;;;16.00;99.90;;;;;;4966386;28;20214;-63
2023/07/24 04:02:00;;;;;;;7.32;1.83;;;15.90;99.90;;;;;;4969185;28;20211;-62
2023/07/24 04:04:26;;;;;;;3.97;2.08;;;15.90;99.90;;;;;;4967277;28;20211;-62
2023/07/24 04:07:06;;;;;;;4.85;1.60;;;15.90;99.90;;;;;;4969724;28;20219;-64
2023/07/24 04:09:50;;;;;;;3.72;1.50;;;15.80;99.90;;;;;;4968593;28;20655;-64
2023/07/24 04:12:53;;;;;;;2.63;1.60;;;15.80;99.90;;;;;;4963638;28;20609;-65
2023/07/24 04:15:39;;;;;;;2.75;1.40;;;15.70;99.90;;;;;;4968256;28;20396;-65
2023/07/24 04:18:05;;;;;;;2.35;1.58;;;15.70;99.90;;;;;;4965696;28;20199;-64
2023/07/24 04:20:30;;;;;;;6.25;2.03;;;15.70;99.90;;;;;;4969349;28;20655;-64
2023/07/24 04:29:40;;;;;;;2.00;1.58;;;15.70;99.90;;;;;;4964383;28;20214;-65
2023/07/24 04:35:28;;;;;;;3.42;1.60;;;15.80;99.90;;;;;;4967398;28;20203;-64
2023/07/24 04:41:16;;;;;;;4.55;1.70;;;15.90;99.90;;;;;;4963824;28;20214;-63
2023/07/24 04:54:07;;;;;;;3.10;1.52;;;;;;;;;;4972433;28;20235;-64
2023/07/24 04:56:35;;;;;;;6.45;1.65;;;17.30;99.90;;;;;;4969806;28;20231;-64
2023/07/24 04:59:00;;;;;;;4.22;1.60;;;16.00;99.90;;;;;;4969416;28;20187;-65
2023/07/24 05:04:48;;;;;;;2.38;1.60;;;16.20;99.90;;;;;;4968558;28;20250;-64
2023/07/24 05:07:14;;;;;;;3.97;1.23;;;;;;;;;;4970027;28;20207;-67
2023/07/24 05:09:40;;;;;;;2.83;1.77;;;;;;;;;;4972943;28;20190;-65
2023/07/24 05:12:07;;;;;;;3.88;1.80;;;18.30;99.90;;;;;;4969828;28;20640;-62
2023/07/24 05:14:33;;;;;;;4.15;1.83;;;;;;;;;;4973358;28;20183;-62
2023/07/24 05:20:20;;;;;;;6.00;1.88;;;16.10;99.90;;;;;;4969344;28;20711;-62
2023/07/24 05:22:46;;;;;;;3.00;1.70;;;16.10;99.90;;;;;;4972448;28;20180;-61
2023/07/24 05:26:02;;;;;;;7.32;1.88;;;16.20;99.90;;;;;;4967815;28;20647;-63
2023/07/24 05:28:36;;;;;;;4.43;1.70;;;16.20;99.90;;;;;;4970279;28;20279;-61
2023/07/24 05:31:03;;;;;;;6.88;2.15;;;16.20;99.90;;;;;;4970412;28;20182;-61
2023/07/24 05:36:51;;;;;;;5.47;2.10;;;16.20;99.90;;;;;;4966884;28;20367;-61
2023/07/24 05:39:54;;;;;;;4.28;2.30;;;16.10;99.90;;;;;;4971106;28;20176;-61
2023/07/24 05:43:12;;;;;;;4.60;2.42;;;16.10;99.90;;;;;;4965585;28;20282;-61
2023/07/24 05:46:16;;;;;;;4.90;2.42;;;16.00;99.90;;;;;;4967548;28;20230;-60
2023/07/24 05:52:10;;;;;;;5.78;2.15;;;16.00;99.90;;;;;;4976611;28;20203;-59
2023/07/24 05:54:36;;;;;;;6.90;2.40;;;15.90;99.90;;;;;;4969410;28;20176;-60
2023/07/24 05:57:01;;;;;;;3.58;1.90;;;15.90;99.90;;;;;;4971731;28;20184;-60
2023/07/24 05:59:36;;;;;;;2.15;1.55;;;15.90;99.90;;;;;;4968335;28;20194;-61
2023/07/24 06:02:02;;;;;;;2.33;1.38;;;15.70;99.90;;;;;;4967635;28;20192;-60
2023/07/24 06:05:20;;;;;;;2.80;0.88;;;15.70;99.90;;;;;;4971929;28;20264;-60
2023/07/24 06:11:32;;;;;;;5.20;0.80;;;15.60;99.90;;;;;;4964122;28;20194;-64
2023/07/24 06:13:59;;;;;;;1.85;0.77;;;;;;;;;;4967726;28;20181;-69
2023/07/24 06:16:52;;;;;;;0.80;0.60;;;15.60;99.90;;;;;;4970437;28;20643;-59
2023/07/24 06:19:18;;;;;;;0.55;0.43;;;15.70;99.90;;;;;;4970982;28;20541;-59
2023/07/24 06:21:44;;;;;;;1.20;0.45;;;15.60;99.90;;;;;;4967079;28;20263;-58
2023/07/24 06:24:12;;;;;;;2.20;0.60;;;15.60;99.90;;;;;;4967932;28;20536;-58
2023/07/24 06:26:38;;;;;;;1.50;0.63;;;15.60;99.90;;;;;;4971236;28;20702;-59
2023/07/24 06:29:04;;;;;;;2.17;0.70;;;15.80;99.90;;;;;;4967959;28;20187;-58
2023/07/24 06:31:29;;;;;;;1.08;0.68;;;15.70;99.90;;;;;;4971098;28;20172;-59
2023/07/24 06:33:55;;;;;;;1.58;0.50;;;15.80;99.90;;;;;;4964507;28;20234;-59
2023/07/24 06:36:21;;;;;;;0.70;0.50;;;15.70;99.90;;;;;;4971219;28;20176;-59
2023/07/24 06:38:47;;;;;;;6.80;0.85;;;15.80;99.90;;;;;;4966799;28;20187;-58
2023/07/24 06:41:16;;;;;;;1.83;0.40;;;15.70;99.90;;;;;;4965144;28;20267;-59
2023/07/24 06:43:42;;;;;;;3.42;0.40;;;15.80;99.90;;;;;;4968034;28;20176;-58
2023/07/24 06:46:08;;;;;;;1.10;0.20;;;15.80;99.90;;;;;;4967988;28;20235;-59
2023/07/24 06:48:33;;;;;;;1.58;0.20;;;15.80;99.90;;;;;;4971070;28;20208;-59
2023/07/24 06:50:59;;;;;;;0.10;0.10;;;15.80;99.90;;;;;;4966537;28;20782;-59
2023/07/24 06:53:25;;;;;;;0.60;0.30;;;15.80;99.90;;;;;;4970862;28;20196;-59
2023/07/24 06:55:50;;;;;;;0.13;0.10;;;15.70;99.90;;;;;;4968326;28;20582;-60
2023/07/24 06:58:16;;;;;;;0.47;0.13;;;15.70;99.90;;;;;;4965108;28;20239;-59
2023/07/24 07:00:42;;;;;;;0.10;0.10;;;15.90;99.90;;;;;;4970507;28;20187;-60
2023/07/24 07:03:07;;;;;;;2.05;0.10;;;15.80;99.90;;;;;;4963417;28;20670;-59
2023/07/24 07:05:33;;;;;;;0.10;0.10;;;15.90;99.90;;;;;;4968712;28;20180;-59
2023/07/24 07:07:59;;;;;;;0.30;0.10;;;15.80;99.90;;;;;;4971469;28;20295;-58
2023/07/24 07:10:25;;;;;;;0.85;0.17;;;15.70;99.90;;;;;;4966997;28;20655;-59
2023/07/24 07:12:50;;;;;;;0.10;0.10;;;15.70;99.90;;;;;;4967123;28;20176;-59
2023/07/24 07:15:36;;;;;;;0.43;0.10;;;15.70;99.90;;;;;;4967723;28;20216;-59
2023/07/24 07:18:02;;;;;;;0.00;0.00;;;15.70;99.90;;;;;;4963012;28;20180;-60
2023/07/24 07:20:27;;;;;;;0.17;0.10;;;15.80;99.90;;;;;;4965330;28;20232;-60
2023/07/24 07:22:53;;;;;;;0.10;0.05;;;15.60;99.90;;;;;;4969241;28;20187;-60
2023/07/24 07:25:19;;;;;;;0.00;0.00;;;15.60;99.90;;;;;;4968669;28;20315;-58
2023/07/24 07:27:44;;;;;;;0.15;0.15;;;15.60;99.90;;;;;;4969411;28;20658;-58
2023/07/24 07:30:11;;;;;;;0.28;0.10;;;15.70;99.90;;;;;;4968249;28;20540;-60
2023/07/24 07:32:36;;;;;;;0.52;0.10;;;15.60;99.90;;;;;;4968146;28;20186;-59
2023/07/24 07:35:03;;;;;;;0.98;0.10;;;15.70;99.90;;;;;;4966940;28;20180;-59
2023/07/24 07:37:29;;;;;;;0.00;0.00;;;15.60;99.90;;;;;;4967400;28;20239;-58
2023/07/24 07:39:54;;;;;;;0.10;0.10;;;15.80;99.90;;;;;;4970710;28;20184;-57
2023/07/24 07:42:20;;;;;;;0.10;0.10;;;15.70;99.90;;;;;;4966517;28;20175;-57
2023/07/24 07:44:46;;;;;;;0.28;0.00;;;15.70;99.90;;;;;;4967147;28;20183;-58
2023/07/24 07:47:12;;;;;;;1.95;0.10;;;15.90;99.90;;;;;;4966385;28;20215;-57
2023/07/24 07:49:38;;;;;;;1.98;0.10;;;15.70;99.90;;;;;;4966892;28;20581;-58
2023/07/24 07:52:04;;;;;;;0.05;0.05;;;15.70;99.90;;;;;;4968276;28;20195;-57
2023/07/24 07:54:30;;;;;;;1.40;0.10;;;15.80;99.90;;;;;;4969184;28;20179;-58
2023/07/24 07:56:56;;;;;;;0.00;0.00;;;15.70;99.90;;;;;;4966590;28;20172;-57
2023/07/24 07:59:22;;;;;;;0.55;0.10;;;15.80;99.90;;;;;;4966830;28;20557;-57
2023/07/24 08:01:47;;;;;;;0.10;0.03;;;15.90;99.90;;;;;;4969977;28;20180;-58
2023/07/24 08:04:13;;;;;;;0.13;0.10;;;15.90;99.90;;;;;;4967404;28;20731;-57
2023/07/24 08:06:39;;;;;;;0.10;0.10;;;15.90;99.90;;;;;;4970882;28;20733;-57
2023/07/24 08:09:05;;;;;;;1.00;0.20;;;16.00;99.90;;;;;;4966262;28;20186;-56
2023/07/24 08:11:31;;;;;;;0.10;0.10;;;16.00;99.90;;;;;;4969842;28;20205;-57
2023/07/24 08:13:57;;;;;;;0.20;0.08;;;15.90;99.90;;;;;;4968374;28;20631;-58
2023/07/24 08:16:22;;;;;;;0.65;0.20;;;16.00;99.90;;;;;;4969810;28;20183;-57
2023/07/24 08:18:48;;;;;;;0.08;0.00;;;15.90;99.90;;;;;;4967934;28;20282;-58
2023/07/24 08:21:15;;;;;;;2.42;0.20;;;16.00;99.90;;;;;;4965134;28;20190;-57
2023/07/24 08:23:41;;;;;;;2.15;0.20;;;16.00;99.90;;;;;;4968542;28;20176;-58
2023/07/24 08:26:07;;;;;;;0.80;0.30;;;15.80;99.90;;;;;;4970745;28;20191;-57
2023/07/24 08:28:36;;;;;;;0.43;0.10;;;15.80;99.90;;;;;;4971535;28;20183;-58
2023/07/24 08:31:39;;;;;;;0.45;0.10;;;15.90;99.90;;;;;;4972212;28;20176;-57
2023/07/24 08:34:05;;;;;;;0.85;0.20;;;16.00;99.90;;;;;;4964472;28;20179;-58
2023/07/24 08:36:30;;;;;;;0.98;0.20;;;16.00;99.90;;;;;;4970051;28;20666;-58
2023/07/24 08:38:56;;;;;;;1.90;0.30;;;16.00;99.90;;;;;;4964290;28;20180;-58
2023/07/24 08:41:22;;;;;;;0.77;0.28;;;15.90;99.90;;;;;;4970274;28;20179;-58
2023/07/24 08:43:49;;;;;;;0.38;0.25;;;15.90;99.90;;;;;;4971042;28;20666;-58
2023/07/24 08:46:16;;;;;;;2.05;0.20;;;16.10;99.90;;;;;;4971095;28;20216;-58
2023/07/24 08:48:42;;;;;;;0.20;0.20;;;16.00;99.90;;;;;;4971205;28;20590;-58
2023/07/24 08:51:10;;;;;;;3.15;0.20;;;16.10;99.90;;;;;;4970225;28;20362;-58
2023/07/24 08:53:38;;;;;;;1.65;0.30;;;16.10;99.90;;;;;;4971197;28;20180;-58
2023/07/24 08:56:05;;;;;;;0.20;0.20;;;16.10;99.90;;;;;;4968752;28;20687;-59
2023/07/24 08:58:31;;;;;;;4.88;0.28;;;16.20;99.90;;;;;;4969922;28;20271;-57
2023/07/24 09:00:58;;;;;;;1.15;0.32;;;16.10;99.90;;;;;;4969490;28;20184;-58
2023/07/24 09:03:24;;;;;;;3.13;0.30;;;16.10;99.90;;;;;;4969213;28;20184;-58
2023/07/24 09:05:50;;;;;;;1.38;0.40;;;16.30;99.90;;;;;;4970527;28;20191;-57
2023/07/24 09:08:15;;;;;;;1.65;0.20;;;16.20;99.90;;;;;;4973483;28;20548;-58
2023/07/24 09:10:41;;;;;;;1.05;0.30;;;16.30;99.90;;;;;;4968905;28;20258;-59
2023/07/24 09:13:07;;;;;;;0.25;0.22;;;16.30;99.90;;;;;;4973575;28;20176;-58
2023/07/24 09:15:43;;;;;;;0.30;0.30;;;16.40;99.90;;;;;;4969147;28;20188;-57
2023/07/24 09:18:10;;;;;;;0.43;0.30;;;16.40;99.90;;;;;;4969748;28;20263;-58
2023/07/24 09:20:42;;;;;;;2.17;0.20;;;16.40;99.90;;;;;;4967633;28;20215;-58
2023/07/24 09:23:10;;;;;;;0.85;0.40;;;16.40;99.90;;;;;;4966919;28;20236;-58
2023/07/24 09:25:38;;;;;;;1.10;0.30;;;16.20;99.90;;;;;;4969153;28;20270;-58
2023/07/24 09:28:15;;;;;;;0.50;0.40;;;16.40;99.90;;;;;;4972751;28;20215;-58
2023/07/24 09:30:41;;;;;;;0.50;0.40;;;16.50;99.90;;;;;;4970569;28;20176;-58
2023/07/24 09:33:08;;;;;;;4.32;0.70;;;16.40;99.90;;;;;;4971823;28;20211;-57
2023/07/24 09:35:34;;;;;;;0.80;0.47;;;16.50;99.90;;;;;;4968273;28;20172;-58
2023/07/24 09:38:07;;;;;;;5.82;0.35;;;16.70;99.90;;;;;;4969774;28;20210;-58
2023/07/24 09:40:41;;;;;;;0.63;0.30;;;16.60;99.90;;;;;;4968442;28;20227;-58
2023/07/24 09:43:18;;;;;;;1.55;0.38;;;16.00;99.90;;;;;;4971873;28;20184;-57
2023/07/24 09:45:44;;;;;;;1.83;0.50;;;17.00;99.90;;;;;;4972038;28;20176;-58
2023/07/24 09:48:14;;;;;;;2.33;0.63;;;17.00;99.90;;;;;;4968625;28;20219;-58
2023/07/24 09:50:42;;;;;;;3.33;0.60;;;16.90;99.90;;;;;;4971488;28;20672;-57
2023/07/24 09:53:12;;;;;;;0.70;0.50;;;16.80;99.90;;;;;;4966737;28;20188;-57
2023/07/24 09:55:46;;;;;;;2.78;0.47;;;16.70;99.90;;;;;;4968165;28;20704;-57
2023/07/24 09:58:14;;;;;;;1.17;0.50;;;16.80;99.90;;;;;;4968648;28;20452;-57
2023/07/24 10:00:40;;;;;;;1.98;0.50;;;16.80;99.90;;;;;;4971001;28;20264;-58
2023/07/24 10:03:06;;;;;;;0.43;0.25;;;16.80;99.90;;;;;;4968826;28;20190;-58
2023/07/24 10:05:32;;;;;;;0.65;0.40;;;17.20;99.90;;;;;;4971345;28;20207;-57
2023/07/24 10:07:58;;;;;;;0.32;0.30;;;17.10;99.90;;;;;;4971823;28;20595;-56
2023/07/24 10:10:25;;;;;;;2.78;0.32;;;17.40;99.90;;;;;;4972081;28;20187;-57
2023/07/24 10:12:51;;;;;;;0.68;0.57;;;17.40;99.90;;;;;;4967919;28;20192;-58
2023/07/24 10:15:18;;;;;;;1.42;0.70;;;17.30;99.90;;;;;;4968971;28;20226;-58
2023/07/24 10:17:43;;;;;;;1.15;0.77;;;17.20;99.90;;;;;;4967468;28;20177;-58
2023/07/24 10:20:11;;;;;;;1.13;0.52;;;17.40;99.90;;;;;;4972633;28;20175;-58
2023/07/24 10:22:41;;;;;;;1.45;0.47;;;17.40;99.90;;;;;;4967872;28;20176;-58
2023/07/24 10:25:08;;;;;;;1.85;0.55;;;17.40;99.90;;;;;;4971928;28;20175;-58
2023/07/24 10:27:43;;;;;;;0.98;0.50;;;17.60;99.90;;;;;;4967873;28;20211;-58
2023/07/24 10:30:09;;;;;;;1.10;0.52;;;17.60;99.90;;;;;;4963854;28;20204;-57
2023/07/24 10:32:49;;;;;;;2.45;0.50;;;17.60;99.90;;;;;;4965028;28;20784;-58
2023/07/24 10:35:17;;;;;;;1.25;0.63;;;18.20;99.90;;;;;;4964206;28;20184;-58
2023/07/24 10:37:43;;;;;;;1.95;0.35;;;18.20;99.90;;;;;;4968018;28;20187;-58
2023/07/24 10:40:19;;;;;;;0.73;0.50;;;18.70;99.90;;;;;;4971776;28;20317;-57
2023/07/24 10:42:45;;;;;;;0.93;0.40;;;18.80;99.90;;;;;;4966938;28;20181;-58
2023/07/24 10:45:11;;;;;;;1.38;0.43;;;;;;;;;;4970740;28;20419;-57
2023/07/24 10:47:37;;;;;;;2.50;0.50;;;19.10;99.90;;;;;;4965630;28;20216;-58
2023/07/24 10:50:03;;;;;;;2.53;0.90;;;19.10;99.90;;;;;;4971844;28;20605;-57
2023/07/24 10:52:33;;;;;;;2.28;0.50;;;19.20;99.90;;;;;;4967449;28;20188;-59
2023/07/24 10:55:05;;;;;;;1.17;0.40;;;19.40;99.90;;;;;;4968113;28;20188;-59
2023/07/24 10:57:32;;;;;;;0.77;0.40;;;19.60;99.90;;;;;;4969272;28;20204;-58
2023/07/24 10:59:59;;;;;;;2.03;0.50;;;19.70;99.90;;;;;;4965465;28;20723;-57
2023/07/24 11:02:25;;;;;;;1.40;0.68;;;19.40;99.90;;;;;;4965877;28;20184;-60
2023/07/24 11:04:50;;;;;;;0.57;0.50;;;19.50;99.90;;;;;;4967514;28;20608;-58
2023/07/24 11:07:16;;;;;;;0.85;0.50;;;19.60;99.90;;;;;;4965604;28;20231;-58
2023/07/24 11:09:43;;;;;;;2.72;0.60;;;19.50;99.90;;;;;;4970959;28;20279;-59
2023/07/24 11:12:14;;;;;;;1.83;0.60;;;19.30;99.90;;;;;;4971343;28;20195;-58
2023/07/24 11:14:47;;;;;;;0.80;0.60;;;18.90;99.90;;;;;;4966202;28;20744;-58
2023/07/24 11:17:13;;;;;;;1.83;0.63;;;18.80;99.90;;;;;;4970838;28;20235;-57
2023/07/24 11:19:39;;;;;;;1.15;0.65;;;18.50;99.90;;;;;;4959957;28;20184;-58
2023/07/24 11:22:04;;;;;;;1.00;0.50;;;18.40;99.90;;;;;;4971492;28;20384;-58
2023/07/24 11:24:30;;;;;;;1.25;0.60;;;18.60;99.90;;;;;;4966727;28;20655;-58
2023/07/24 11:26:56;;;;;;;2.10;0.90;;;18.60;99.90;;;;;;4967436;28;20256;-57
2023/07/24 11:29:23;;;;;;;1.05;0.40;;;18.80;99.90;;;;;;4968031;28;20186;-58
2023/07/24 11:31:54;;;;;;;0.85;0.73;;;19.80;99.90;;;;;;4971218;28;20230;-59
2023/07/24 11:34:20;;;;;;;0.90;0.50;;;19.30;99.90;;;;;;4966803;28;20175;-58
2023/07/24 11:36:46;;;;;;;2.33;0.68;;;19.30;99.90;;;;;;4967491;28;20223;-58
2023/07/24 11:39:12;;;;;;;2.63;0.60;;;19.40;99.90;;;;;;4962794;28;20220;-58
2023/07/24 11:41:37;;;;;;;2.30;0.70;;;19.50;99.90;;;;;;4971228;28;20179;-58
2023/07/24 11:44:03;;;;;;;1.15;0.60;;;19.60;99.90;;;;;;4961971;28;20179;-58
2023/07/24 11:46:31;;;;;;;0.95;0.60;;;19.80;99.90;;;;;;4967192;28;20304;-57
2023/07/24 11:48:57;;;;;;;0.95;0.60;;;19.60;99.90;;;;;;4969670;28;20179;-58
2023/07/24 11:51:25;;;;;;;0.80;0.60;;;19.60;99.90;;;;;;4966949;28;20199;-58
2023/07/24 11:53:51;;;;;;;1.20;0.80;;;19.50;99.90;;;;;;4971272;28;20277;-59
2023/07/24 11:56:19;;;;;;;2.15;0.75;;;19.30;99.90;;;;;;4960339;28;20172;-59
2023/07/24 11:58:44;;;;;;;2.63;1.30;;;19.40;99.90;;;;;;4967649;28;20183;-58
2023/07/24 12:11:44;;;;;;;1.25;0.90;;;18.90;99.90;;;;;;4971094;28;20198;-60
2023/07/24 12:14:10;;;;;;;1.42;0.80;;;19.00;99.90;;;;;;4970221;28;20179;-58
2023/07/24 12:19:55;;;;;;;2.10;1.00;;;19.90;99.90;;;;;;4969807;28;20250;-59
2023/07/24 12:22:20;;;;;;;1.23;0.60;;;20.60;99.90;;;;;;4974410;28;20207;-57
2023/07/24 12:24:46;;;;;;;3.70;1.00;;;21.10;99.90;;;;;;4966237;28;20617;-59
2023/07/24 12:27:12;;;;;;;1.90;0.90;;;20.90;99.90;;;;;;4974090;28;20673;-59
2023/07/24 12:29:38;;;;;;;2.22;0.82;;;20.70;99.90;;;;;;4969346;28;20643;-59
2023/07/24 12:32:04;;;;;;;2.05;0.90;;;20.60;96.20;;;;;;4972662;28;20635;-59
2023/07/24 12:34:29;;;;;;;1.48;0.80;;;20.50;95.00;;;;;;4972275;28;20247;-59
2023/07/24 12:36:55;;;;;;;2.20;0.60;;;20.10;1.00;;;;;;4973614;28;20188;-59
2023/07/24 12:39:30;;;;;;;1.77;0.80;;;19.60;1.00;;;;;;4972092;28;20291;-58
2023/07/24 12:41:55;;;;;;;5.75;0.98;;;19.10;99.90;;;;;;4972589;28;20647;-58
2023/07/24 12:54:26;;;;;;;3.92;1.20;;;18.60;99.90;;;;;;4762404;22;20226;-65
2023/07/24 12:57:36;;;;;;;4.68;1.25;;;18.60;99.90;;;;;;5022045;28;20174;-65
2023/07/24 13:00:02;;;;;;;2.28;1.20;;;;;;;;;;5023978;28;20170;-66
2023/07/24 13:02:37;;;;;;;4.57;1.35;;;18.90;99.90;;;;;;5018419;28;20169;-64
2023/07/24 13:05:03;;;;;;;1.83;1.00;;;18.80;99.90;;;;;;5016411;28;20177;-65
2023/07/24 13:07:29;;;;;;;4.47;1.30;;;18.30;99.90;;;;;;5029810;28;20209;-65
2023/07/24 13:13:19;;;;;;;3.85;1.45;;;18.00;99.90;;;;;;5016326;28;20181;-65
2023/07/24 13:19:07;;;;;;;6.40;1.30;;;17.80;99.90;;;;;;5033020;28;20177;-63
2023/07/24 13:25:42;;;;;;;4.43;1.63;;;17.40;99.90;;;;;;5010735;28;20225;-64
2023/07/24 13:28:08;;;;;;;4.45;2.00;;;17.40;99.90;;;;;;5011741;28;20276;-64
2023/07/24 13:30:34;;;;;;;5.43;1.60;;;17.30;99.90;;;;;;5013372;28;20166;-64
2023/07/24 13:32:59;;;;;;;4.30;1.80;;;17.30;99.90;;;;;;5013418;28;20320;-64
2023/07/24 13:35:25;;;;;;;4.00;1.80;;;17.20;99.90;;;;;;5020946;28;20185;-65
2023/07/24 13:37:51;;;;;;;3.80;1.80;;;17.30;99.90;;;;;;5029322;28;20178;-64
2023/07/24 13:43:38;;;;;;;8.50;1.75;;;17.80;99.90;;;;;;5012965;28;20225;-64
2023/07/24 13:46:04;;;;;;;11.23;1.63;;;17.80;99.90;;;;;;5012639;28;20182;-64
2023/07/24 13:49:08;;;;;;;7.30;2.00;;;18.10;99.90;;;;;;5012809;28;20175;-64
2023/07/24 13:55:23;;;;;;;2.10;1.40;;;19.40;99.90;;;;;;3969582;28;20710;-64
2023/07/24 13:58:26;;;;;;;3.70;1.33;;;19.30;99.90;;;;;;5012075;28;20240;-65
2023/07/24 14:04:33;;;;;;;5.53;1.50;;;18.30;99.90;;;;;;5032076;28;20185;-64
2023/07/24 14:07:20;;;;;;;6.20;1.73;;;18.00;99.90;;;;;;5032014;28;20267;-64
2023/07/24 14:16:48;;;;;;;6.53;1.60;;;17.00;99.90;;;;;;5012969;28;20634;-64
2023/07/24 14:20:06;;;;;;;5.40;1.42;;;16.90;99.90;;;;;;5029628;28;20181;-64
2023/07/24 14:23:14;;;;;;;4.13;1.50;;;16.90;99.90;;;;;;5031708;28;20177;-63
2023/07/24 14:26:23;;;;;;;6.82;1.70;;;16.90;99.90;;;;;;5031566;28;20174;-63
2023/07/24 14:28:48;;;;;;;5.38;1.98;;;16.80;99.90;;;;;;5031478;28;20192;-65
2023/07/24 14:34:36;;;;;;;10.65;2.10;;;16.90;99.90;;;;;;5020705;28;20224;-64
2023/07/24 14:37:07;;;;;;;4.65;1.42;;;17.00;99.90;;;;;;5031040;28;20186;-65
2023/07/24 14:39:32;;;;;;;5.15;1.88;;;16.90;99.90;;;;;;5031368;28;20177;-64
2023/07/24 14:45:20;;;;;;;6.35;2.13;;;16.90;99.90;;;;;;5031929;28;20192;-65
2023/07/24 14:54:37;;;;;;;5.68;1.80;;;;;;;;;;4667647;28;20225;-56
2023/07/24 14:57:12;;;;;;;4.55;1.85;;;16.80;99.90;;;;;;5010116;28;20182;-51